sensor_id;sensor_type;location;lat;lon;timestamp;temperature;humidity
13642;DHT22;6894;52.196;9.904;2023-03-29T00:01:40;6.90;1.00
13642;DHT22;6894;52.196;9.904;2023-03-29T00:04:07;6.80;1.00
13642;DHT22;6894;52.196;9.904;2023-03-29T00:06:36;6.80;1.00
13642;DHT22;6894;52.196;9.904;2023-03-29T00:09:03;6.80;1.00
13642;DHT22;6894;52.196;9.904;2023-03-29T00:11:31;6.90;1.00
13642;DHT22;6894;52.196;9.904;2023-03-29T00:13:58;6.80;1.00
13642;DHT22;6894;52.196;9.904;2023-03-29T00:16:24;6.80;1.00
13642;DHT22;6894;52.196;9.904;2023-03-29T00:18:51;6.90;1.00
13642;DHT22;6894;52.196;9.904;2023-03-29T00:21:18;6.80;1.00
13642;DHT22;6894;52.196;9.904;2023-03-29T00:23:46;6.80;1.00
13642;DHT22;6894;52.196;9.904;2023-03-29T00:26:13;6.80;1.00
13642;DHT22;6894;52.196;9.904;2023-03-29T00:28:40;6.80;1.00
13642;DHT22;6894;52.196;9.904;2023-03-29T00:31:08;6.80;1.00
13642;DHT22;6894;52.196;9.904;2023-03-29T00:33:35;6.80;1.00
13642;DHT22;6894;52.196;9.904;2023-03-29T00:36:02;6.80;1.00
13642;DHT22;6894;52.196;9.904;2023-03-29T00:38:30;6.80;1.00
13642;DHT22;6894;52.196;9.904;2023-03-29T00:40:58;6.90;1.00
13642;DHT22;6894;52.196;9.904;2023-03-29T00:43:25;6.80;1.00
13642;DHT22;6894;52.196;9.904;2023-03-29T00:45:52;6.80;1.00
13642;DHT22;6894;52.196;9.904;2023-03-29T00:48:21;6.80;1.00
13642;DHT22;6894;52.196;9.904;2023-03-29T00:50:50;6.90;1.00
13642;DHT22;6894;52.196;9.904;2023-03-29T00:53:20;6.90;1.00
13642;DHT22;6894;52.196;9.904;2023-03-29T00:55:52;6.80;1.00
13642;DHT22;6894;52.196;9.904;2023-03-29T00:58:27;6.80;1.00
13642;DHT22;6894;52.196;9.904;2023-03-29T01:00:58;6.80;1.00
13642;DHT22;6894;52.196;9.904;2023-03-29T01:03:28;6.80;1.00
13642;DHT22;6894;52.196;9.904;2023-03-29T01:06:00;6.70;1.00
13642;DHT22;6894;52.196;9.904;2023-03-29T01:08:31;6.80;1.00
13642;DHT22;6894;52.196;9.904;2023-03-29T01:11:05;6.80;24.90
13642;DHT22;6894;52.196;9.904;2023-03-29T01:13:39;6.70;99.90
13642;DHT22;6894;52.196;9.904;2023-03-29T01:16:08;6.80;99.90
13642;DHT22;6894;52.196;9.904;2023-03-29T01:18:36;6.70;99.90
13642;DHT22;6894;52.196;9.904;2023-03-29T01:21:15;6.70;99.90
13642;DHT22;6894;52.196;9.904;2023-03-29T01:23:53;6.70;99.90
13642;DHT22;6894;52.196;9.904;2023-03-29T01:26:39;6.80;99.90
13642;DHT22;6894;52.196;9.904;2023-03-29T01:29:12;6.70;1.00
13642;DHT22;6894;52.196;9.904;2023-03-29T01:31:44;6.70;1.00
13642;DHT22;6894;52.196;9.904;2023-03-29T01:34:17;6.70;1.00
13642;DHT22;6894;52.196;9.904;2023-03-29T01:36:49;7.40;1.00
13642;DHT22;6894;52.196;9.904;2023-03-29T01:39:19;6.60;1.00
13642;DHT22;6894;52.196;9.904;2023-03-29T01:41:51;6.60;99.90
13642;DHT22;6894;52.196;9.904;2023-03-29T01:44:29;6.50;1.00
13642;DHT22;6894;52.196;9.904;2023-03-29T01:47:03;6.50;1.00
13642;DHT22;6894;52.196;9.904;2023-03-29T01:49:36;6.60;1.00
13642;DHT22;6894;52.196;9.904;2023-03-29T01:52:08;6.40;99.90
13642;DHT22;6894;52.196;9.904;2023-03-29T01:54:39;6.50;99.90
13642;DHT22;6894;52.196;9.904;2023-03-29T01:57:07;6.40;1.00
13642;DHT22;6894;52.196;9.904;2023-03-29T01:59:40;6.40;1.00
13642;DHT22;6894;52.196;9.904;2023-03-29T02:02:10;6.40;35.60
13642;DHT22;6894;52.196;9.904;2023-03-29T02:04:41;6.40;99.90
13642;DHT22;6894;52.196;9.904;2023-03-29T02:07:13;6.40;1.00
13642;DHT22;6894;52.196;9.904;2023-03-29T02:09:41;6.30;1.00
13642;DHT22;6894;52.196;9.904;2023-03-29T02:12:09;6.30;99.90
13642;DHT22;6894;52.196;9.904;2023-03-29T02:14:38;6.30;99.90
13642;DHT22;6894;52.196;9.904;2023-03-29T02:17:20;6.30;1.00
13642;DHT22;6894;52.196;9.904;2023-03-29T02:19:52;6.30;1.00
13642;DHT22;6894;52.196;9.904;2023-03-29T02:22:25;6.30;1.00
13642;DHT22;6894;52.196;9.904;2023-03-29T02:24:55;6.30;99.90
13642;DHT22;6894;52.196;9.904;2023-03-29T02:27:24;6.20;99.90
13642;DHT22;6894;52.196;9.904;2023-03-29T02:29:53;6.20;1.00
13642;DHT22;6894;52.196;9.904;2023-03-29T02:32:24;6.20;1.00
13642;DHT22;6894;52.196;9.904;2023-03-29T02:34:56;6.10;1.00
13642;DHT22;6894;52.196;9.904;2023-03-29T02:37:24;6.10;99.90
13642;DHT22;6894;52.196;9.904;2023-03-29T02:39:55;6.10;99.90
13642;DHT22;6894;52.196;9.904;2023-03-29T02:42:23;6.00;1.00
13642;DHT22;6894;52.196;9.904;2023-03-29T02:44:55;6.10;99.90
13642;DHT22;6894;52.196;9.904;2023-03-29T02:47:27;6.00;1.00
13642;DHT22;6894;52.196;9.904;2023-03-29T02:49:56;6.10;99.90
13642;DHT22;6894;52.196;9.904;2023-03-29T02:52:27;6.00;1.00
13642;DHT22;6894;52.196;9.904;2023-03-29T02:54:58;6.00;1.00
13642;DHT22;6894;52.196;9.904;2023-03-29T02:57:28;5.90;99.90
13642;DHT22;6894;52.196;9.904;2023-03-29T02:59:58;5.90;1.00
13642;DHT22;6894;52.196;9.904;2023-03-29T03:02:26;5.90;1.00
13642;DHT22;6894;52.196;9.904;2023-03-29T03:04:54;5.80;94.20
13642;DHT22;6894;52.196;9.904;2023-03-29T03:07:20;5.80;99.90
13642;DHT22;6894;52.196;9.904;2023-03-29T03:09:49;5.70;1.00
13642;DHT22;6894;52.196;9.904;2023-03-29T03:12:16;6.20;1.00
13642;DHT22;6894;52.196;9.904;2023-03-29T03:14:43;5.70;1.00
13642;DHT22;6894;52.196;9.904;2023-03-29T03:17:11;5.60;1.00
13642;DHT22;6894;52.196;9.904;2023-03-29T03:19:37;5.60;1.00
13642;DHT22;6894;52.196;9.904;2023-03-29T03:22:04;5.50;1.00
13642;DHT22;6894;52.196;9.904;2023-03-29T03:24:32;5.60;1.00
13642;DHT22;6894;52.196;9.904;2023-03-29T03:26:59;5.60;1.00
13642;DHT22;6894;52.196;9.904;2023-03-29T03:29:26;5.60;1.00
13642;DHT22;6894;52.196;9.904;2023-03-29T03:31:53;5.50;1.00
13642;DHT22;6894;52.196;9.904;2023-03-29T03:34:21;5.50;1.00
13642;DHT22;6894;52.196;9.904;2023-03-29T03:36:48;5.50;1.00
13642;DHT22;6894;52.196;9.904;2023-03-29T03:39:15;5.50;1.00
13642;DHT22;6894;52.196;9.904;2023-03-29T03:41:41;5.40;1.00
13642;DHT22;6894;52.196;9.904;2023-03-29T03:44:08;5.40;1.00
13642;DHT22;6894;52.196;9.904;2023-03-29T03:46:36;5.40;1.00
13642;DHT22;6894;52.196;9.904;2023-03-29T03:49:03;5.40;1.00
13642;DHT22;6894;52.196;9.904;2023-03-29T03:51:31;5.40;1.00
13642;DHT22;6894;52.196;9.904;2023-03-29T03:53:58;5.40;1.00
13642;DHT22;6894;52.196;9.904;2023-03-29T03:56:24;5.40;1.00
13642;DHT22;6894;52.196;9.904;2023-03-29T03:58:54;5.40;1.00
13642;DHT22;6894;52.196;9.904;2023-03-29T04:01:21;5.40;1.00
13642;DHT22;6894;52.196;9.904;2023-03-29T04:03:48;5.40;1.00
13642;DHT22;6894;52.196;9.904;2023-03-29T04:06:15;5.40;1.00
13642;DHT22;6894;52.196;9.904;2023-03-29T04:08:43;5.50;1.00
13642;DHT22;6894;52.196;9.904;2023-03-29T04:11:10;5.50;1.00
13642;DHT22;6894;52.196;9.904;2023-03-29T04:13:36;5.40;1.00
13642;DHT22;6894;52.196;9.904;2023-03-29T04:16:04;5.50;1.00
13642;DHT22;6894;52.196;9.904;2023-03-29T04:18:31;5.50;1.00
13642;DHT22;6894;52.196;9.904;2023-03-29T04:20:58;5.50;1.00
13642;DHT22;6894;52.196;9.904;2023-03-29T04:23:25;5.50;1.00
13642;DHT22;6894;52.196;9.904;2023-03-29T04:25:54;5.40;1.00
13642;DHT22;6894;52.196;9.904;2023-03-29T04:28:21;5.50;1.00
13642;DHT22;6894;52.196;9.904;2023-03-29T04:30:48;5.50;1.00
13642;DHT22;6894;52.196;9.904;2023-03-29T04:33:15;5.50;1.00
13642;DHT22;6894;52.196;9.904;2023-03-29T04:35:42;5.60;1.00
13642;DHT22;6894;52.196;9.904;2023-03-29T04:38:09;5.40;1.00
13642;DHT22;6894;52.196;9.904;2023-03-29T04:40:36;5.50;1.00
13642;DHT22;6894;52.196;9.904;2023-03-29T04:43:05;5.40;1.00
13642;DHT22;6894;52.196;9.904;2023-03-29T04:45:32;5.50;1.00
13642;DHT22;6894;52.196;9.904;2023-03-29T04:47:58;5.40;1.00
13642;DHT22;6894;52.196;9.904;2023-03-29T04:50:25;5.50;1.00
13642;DHT22;6894;52.196;9.904;2023-03-29T04:52:52;5.60;1.00
13642;DHT22;6894;52.196;9.904;2023-03-29T04:55:19;5.40;1.00
13642;DHT22;6894;52.196;9.904;2023-03-29T04:57:45;5.50;1.00
13642;DHT22;6894;52.196;9.904;2023-03-29T05:00:14;5.40;1.00
13642;DHT22;6894;52.196;9.904;2023-03-29T05:02:41;5.40;1.00
13642;DHT22;6894;52.196;9.904;2023-03-29T05:05:09;5.40;1.00
13642;DHT22;6894;52.196;9.904;2023-03-29T05:07:36;5.40;1.00
13642;DHT22;6894;52.196;9.904;2023-03-29T05:10:04;5.50;1.00
13642;DHT22;6894;52.196;9.904;2023-03-29T05:12:31;5.50;1.00
13642;DHT22;6894;52.196;9.904;2023-03-29T05:14:58;5.50;1.00
13642;DHT22;6894;52.196;9.904;2023-03-29T05:17:26;5.40;1.00
13642;DHT22;6894;52.196;9.904;2023-03-29T05:19:53;5.50;1.00
13642;DHT22;6894;52.196;9.904;2023-03-29T05:22:20;5.50;1.00
13642;DHT22;6894;52.196;9.904;2023-03-29T05:24:48;5.50;1.00
13642;DHT22;6894;52.196;9.904;2023-03-29T05:27:14;5.50;1.00
13642;DHT22;6894;52.196;9.904;2023-03-29T05:29:42;5.50;1.00
13642;DHT22;6894;52.196;9.904;2023-03-29T05:32:10;5.50;1.00
13642;DHT22;6894;52.196;9.904;2023-03-29T05:34:39;5.60;1.00
13642;DHT22;6894;52.196;9.904;2023-03-29T05:37:06;5.50;1.00
13642;DHT22;6894;52.196;9.904;2023-03-29T05:39:32;5.60;1.00
13642;DHT22;6894;52.196;9.904;2023-03-29T05:41:59;5.60;1.00
13642;DHT22;6894;52.196;9.904;2023-03-29T05:44:26;5.50;1.00
13642;DHT22;6894;52.196;9.904;2023-03-29T05:46:53;5.60;1.00
13642;DHT22;6894;52.196;9.904;2023-03-29T05:49:20;5.50;1.00
13642;DHT22;6894;52.196;9.904;2023-03-29T05:51:48;5.60;1.00
13642;DHT22;6894;52.196;9.904;2023-03-29T05:54:16;5.60;1.00
13642;DHT22;6894;52.196;9.904;2023-03-29T05:56:43;5.70;1.00
13642;DHT22;6894;52.196;9.904;2023-03-29T05:59:09;5.60;1.00
13642;DHT22;6894;52.196;9.904;2023-03-29T06:01:38;5.70;1.00
13642;DHT22;6894;52.196;9.904;2023-03-29T06:04:06;5.70;1.00
13642;DHT22;6894;52.196;9.904;2023-03-29T06:06:33;5.70;1.00
13642;DHT22;6894;52.196;9.904;2023-03-29T06:09:01;5.70;1.00
13642;DHT22;6894;52.196;9.904;2023-03-29T06:11:30;5.80;1.00
13642;DHT22;6894;52.196;9.904;2023-03-29T06:13:57;5.80;1.00
13642;DHT22;6894;52.196;9.904;2023-03-29T06:16:24;5.80;1.00
13642;DHT22;6894;52.196;9.904;2023-03-29T06:18:51;5.90;1.00
13642;DHT22;6894;52.196;9.904;2023-03-29T06:21:18;5.90;1.00
13642;DHT22;6894;52.196;9.904;2023-03-29T06:23:45;6.00;1.00
13642;DHT22;6894;52.196;9.904;2023-03-29T06:26:13;6.10;99.90
13642;DHT22;6894;52.196;9.904;2023-03-29T06:28:40;6.10;99.90
13642;DHT22;6894;52.196;9.904;2023-03-29T06:31:07;6.20;99.90
13642;DHT22;6894;52.196;9.904;2023-03-29T06:33:34;6.10;99.90
13642;DHT22;6894;52.196;9.904;2023-03-29T06:36:02;6.20;71.40
13642;DHT22;6894;52.196;9.904;2023-03-29T06:38:30;6.30;28.60
13642;DHT22;6894;52.196;9.904;2023-03-29T06:41:00;6.30;1.00
13642;DHT22;6894;52.196;9.904;2023-03-29T06:43:29;6.30;1.00
13642;DHT22;6894;52.196;9.904;2023-03-29T06:45:57;6.40;1.00
13642;DHT22;6894;52.196;9.904;2023-03-29T06:48:24;6.40;1.00
13642;DHT22;6894;52.196;9.904;2023-03-29T06:50:50;6.50;1.00
13642;DHT22;6894;52.196;9.904;2023-03-29T06:53:19;6.50;99.90
13642;DHT22;6894;52.196;9.904;2023-03-29T06:55:46;6.60;99.90
13642;DHT22;6894;52.196;9.904;2023-03-29T06:58:13;6.60;99.90
13642;DHT22;6894;52.196;9.904;2023-03-29T07:00:41;6.80;94.30
13642;DHT22;6894;52.196;9.904;2023-03-29T07:03:08;6.80;1.00
13642;DHT22;6894;52.196;9.904;2023-03-29T07:05:39;6.90;1.00
13642;DHT22;6894;52.196;9.904;2023-03-29T07:08:06;7.00;1.00
13642;DHT22;6894;52.196;9.904;2023-03-29T07:10:42;7.00;99.90
13642;DHT22;6894;52.196;9.904;2023-03-29T07:13:10;7.10;99.90
13642;DHT22;6894;52.196;9.904;2023-03-29T07:15:38;7.10;1.00
13642;DHT22;6894;52.196;9.904;2023-03-29T07:18:06;7.00;1.00
13642;DHT22;6894;52.196;9.904;2023-03-29T07:20:33;7.10;1.00
13642;DHT22;6894;52.196;9.904;2023-03-29T07:23:00;7.30;1.00
13642;DHT22;6894;52.196;9.904;2023-03-29T07:25:27;7.30;1.00
13642;DHT22;6894;52.196;9.904;2023-03-29T07:27:54;7.30;1.00
13642;DHT22;6894;52.196;9.904;2023-03-29T07:30:23;7.40;1.00
13642;DHT22;6894;52.196;9.904;2023-03-29T07:32:53;7.40;1.00
13642;DHT22;6894;52.196;9.904;2023-03-29T07:35:21;7.50;1.00
13642;DHT22;6894;52.196;9.904;2023-03-29T07:37:49;7.60;99.90
13642;DHT22;6894;52.196;9.904;2023-03-29T07:40:17;7.60;1.00
13642;DHT22;6894;52.196;9.904;2023-03-29T07:42:49;7.60;1.00
13642;DHT22;6894;52.196;9.904;2023-03-29T07:45:17;7.70;99.90
13642;DHT22;6894;52.196;9.904;2023-03-29T07:47:45;7.70;99.90
13642;DHT22;6894;52.196;9.904;2023-03-29T07:50:12;7.80;99.90
13642;DHT22;6894;52.196;9.904;2023-03-29T07:52:40;7.80;1.00
13642;DHT22;6894;52.196;9.904;2023-03-29T07:55:09;7.80;1.00
13642;DHT22;6894;52.196;9.904;2023-03-29T07:57:37;7.90;99.90
13642;DHT22;6894;52.196;9.904;2023-03-29T08:00:05;7.90;1.00
13642;DHT22;6894;52.196;9.904;2023-03-29T08:02:41;7.90;99.90
13642;DHT22;6894;52.196;9.904;2023-03-29T08:05:09;7.90;99.90
13642;DHT22;6894;52.196;9.904;2023-03-29T08:07:37;8.00;1.00
13642;DHT22;6894;52.196;9.904;2023-03-29T08:10:09;7.90;1.00
13642;DHT22;6894;52.196;9.904;2023-03-29T08:12:36;8.00;99.90
13642;DHT22;6894;52.196;9.904;2023-03-29T08:15:04;8.00;1.00
13642;DHT22;6894;52.196;9.904;2023-03-29T08:17:31;8.10;1.00
13642;DHT22;6894;52.196;9.904;2023-03-29T08:19:59;8.10;99.90
13642;DHT22;6894;52.196;9.904;2023-03-29T08:22:26;8.10;1.00
13642;DHT22;6894;52.196;9.904;2023-03-29T08:24:53;8.20;99.90
13642;DHT22;6894;52.196;9.904;2023-03-29T08:27:21;8.20;1.00
13642;DHT22;6894;52.196;9.904;2023-03-29T08:29:48;8.20;1.00
13642;DHT22;6894;52.196;9.904;2023-03-29T08:32:15;8.20;58.50
13642;DHT22;6894;52.196;9.904;2023-03-29T08:34:41;8.20;99.90
13642;DHT22;6894;52.196;9.904;2023-03-29T08:37:08;8.30;1.00
13642;DHT22;6894;52.196;9.904;2023-03-29T08:39:35;8.30;1.00
13642;DHT22;6894;52.196;9.904;2023-03-29T08:42:22;8.40;1.00
13642;DHT22;6894;52.196;9.904;2023-03-29T08:45:02;8.30;99.90
13642;DHT22;6894;52.196;9.904;2023-03-29T08:47:38;8.40;1.00
13642;DHT22;6894;52.196;9.904;2023-03-29T08:50:08;8.40;1.00
13642;DHT22;6894;52.196;9.904;2023-03-29T08:52:38;8.50;1.00
13642;DHT22;6894;52.196;9.904;2023-03-29T08:55:14;8.60;1.00
13642;DHT22;6894;52.196;9.904;2023-03-29T08:57:47;8.70;99.90
13642;DHT22;6894;52.196;9.904;2023-03-29T09:00:19;8.70;99.90
13642;DHT22;6894;52.196;9.904;2023-03-29T09:02:48;8.80;99.90
13642;DHT22;6894;52.196;9.904;2023-03-29T09:05:21;8.90;24.80
13642;DHT22;6894;52.196;9.904;2023-03-29T09:07:51;8.90;1.00
13642;DHT22;6894;52.196;9.904;2023-03-29T09:10:20;9.00;1.00
13642;DHT22;6894;52.196;9.904;2023-03-29T09:13:00;9.00;1.00
13642;DHT22;6894;52.196;9.904;2023-03-29T09:15:37;9.10;1.00
13642;DHT22;6894;52.196;9.904;2023-03-29T09:18:11;9.10;1.00
13642;DHT22;6894;52.196;9.904;2023-03-29T09:20:45;9.20;1.00
13642;DHT22;6894;52.196;9.904;2023-03-29T09:23:37;9.30;1.00
13642;DHT22;6894;52.196;9.904;2023-03-29T09:26:15;9.30;1.00
13642;DHT22;6894;52.196;9.904;2023-03-29T09:28:50;9.30;1.00
13642;DHT22;6894;52.196;9.904;2023-03-29T09:31:21;9.30;1.00
13642;DHT22;6894;52.196;9.904;2023-03-29T09:33:53;9.50;1.00
13642;DHT22;6894;52.196;9.904;2023-03-29T09:36:24;9.40;1.00
13642;DHT22;6894;52.196;9.904;2023-03-29T09:38:51;9.50;1.00
13642;DHT22;6894;52.196;9.904;2023-03-29T09:41:23;9.50;1.00
13642;DHT22;6894;52.196;9.904;2023-03-29T09:43:54;9.50;1.00
13642;DHT22;6894;52.196;9.904;2023-03-29T09:46:26;9.60;1.00
13642;DHT22;6894;52.196;9.904;2023-03-29T09:48:54;9.60;1.00
13642;DHT22;6894;52.196;9.904;2023-03-29T09:51:24;9.60;1.00
13642;DHT22;6894;52.196;9.904;2023-03-29T09:53:53;9.50;1.00
13642;DHT22;6894;52.196;9.904;2023-03-29T09:56:20;9.40;1.00
13642;DHT22;6894;52.196;9.904;2023-03-29T09:58:47;9.40;1.00
13642;DHT22;6894;52.196;9.904;2023-03-29T10:01:15;9.30;99.90
13642;DHT22;6894;52.196;9.904;2023-03-29T10:03:47;9.30;99.90
13642;DHT22;6894;52.196;9.904;2023-03-29T10:06:15;9.40;1.00
13642;DHT22;6894;52.196;9.904;2023-03-29T10:08:45;9.40;1.00
13642;DHT22;6894;52.196;9.904;2023-03-29T10:11:19;9.40;1.00
13642;DHT22;6894;52.196;9.904;2023-03-29T10:13:49;9.60;1.00
13642;DHT22;6894;52.196;9.904;2023-03-29T10:16:21;9.50;1.00
13642;DHT22;6894;52.196;9.904;2023-03-29T10:18:48;9.60;1.00
13642;DHT22;6894;52.196;9.904;2023-03-29T10:21:16;9.70;1.00
13642;DHT22;6894;52.196;9.904;2023-03-29T10:23:44;9.80;1.00
13642;DHT22;6894;52.196;9.904;2023-03-29T10:26:24;9.90;1.00
13642;DHT22;6894;52.196;9.904;2023-03-29T10:28:53;10.00;1.00
13642;DHT22;6894;52.196;9.904;2023-03-29T10:31:23;10.10;1.00
13642;DHT22;6894;52.196;9.904;2023-03-29T10:33:52;10.10;99.90
13642;DHT22;6894;52.196;9.904;2023-03-29T10:36:21;10.00;99.90
13642;DHT22;6894;52.196;9.904;2023-03-29T10:38:49;10.00;1.00
13642;DHT22;6894;52.196;9.904;2023-03-29T10:41:16;10.20;1.00
13642;DHT22;6894;52.196;9.904;2023-03-29T10:43:47;10.30;99.90
13642;DHT22;6894;52.196;9.904;2023-03-29T10:46:19;10.40;99.90
13642;DHT22;6894;52.196;9.904;2023-03-29T10:48:49;10.50;99.90
13642;DHT22;6894;52.196;9.904;2023-03-29T10:51:17;10.60;1.00
13642;DHT22;6894;52.196;9.904;2023-03-29T10:53:44;10.80;99.90
13642;DHT22;6894;52.196;9.904;2023-03-29T10:56:28;10.90;1.00
13642;DHT22;6894;52.196;9.904;2023-03-29T10:59:26;11.10;99.90
13642;DHT22;6894;52.196;9.904;2023-03-29T11:02:15;10.70;99.90
13642;DHT22;6894;52.196;9.904;2023-03-29T11:04:51;10.70;1.00
13642;DHT22;6894;52.196;9.904;2023-03-29T11:07:27;10.70;1.00
13642;DHT22;6894;52.196;9.904;2023-03-29T11:10:05;10.70;1.00
13642;DHT22;6894;52.196;9.904;2023-03-29T11:12:41;10.80;1.00
13642;DHT22;6894;52.196;9.904;2023-03-29T11:15:19;10.80;99.90
13642;DHT22;6894;52.196;9.904;2023-03-29T11:17:54;10.90;1.00
13642;DHT22;6894;52.196;9.904;2023-03-29T11:20:32;11.00;1.00
13642;DHT22;6894;52.196;9.904;2023-03-29T11:23:09;11.10;1.00
13642;DHT22;6894;52.196;9.904;2023-03-29T11:25:44;11.30;99.90
13642;DHT22;6894;52.196;9.904;2023-03-29T11:28:17;11.60;99.90
13642;DHT22;6894;52.196;9.904;2023-03-29T11:30:48;11.90;1.00
13642;DHT22;6894;52.196;9.904;2023-03-29T11:33:24;11.90;1.00
13642;DHT22;6894;52.196;9.904;2023-03-29T11:35:59;11.90;1.00
13642;DHT22;6894;52.196;9.904;2023-03-29T11:38:32;12.10;1.00
13642;DHT22;6894;52.196;9.904;2023-03-29T11:41:09;12.30;1.00
13642;DHT22;6894;52.196;9.904;2023-03-29T11:43:39;12.70;1.00
13642;DHT22;6894;52.196;9.904;2023-03-29T11:46:11;12.80;1.00
13642;DHT22;6894;52.196;9.904;2023-03-29T11:48:43;12.70;1.00
13642;DHT22;6894;52.196;9.904;2023-03-29T11:51:16;12.80;1.00
13642;DHT22;6894;52.196;9.904;2023-03-29T11:53:51;12.60;57.40
13642;DHT22;6894;52.196;9.904;2023-03-29T11:56:25;12.80;1.00
13642;DHT22;6894;52.196;9.904;2023-03-29T11:58:58;13.20;1.00
13642;DHT22;6894;52.196;9.904;2023-03-29T12:01:30;13.10;1.00
13642;DHT22;6894;52.196;9.904;2023-03-29T12:04:00;12.90;1.00
13642;DHT22;6894;52.196;9.904;2023-03-29T12:06:35;12.90;1.00
13642;DHT22;6894;52.196;9.904;2023-03-29T12:09:06;12.90;1.00
13642;DHT22;6894;52.196;9.904;2023-03-29T12:11:38;12.80;1.00
13642;DHT22;6894;52.196;9.904;2023-03-29T12:14:11;12.60;99.90
13642;DHT22;6894;52.196;9.904;2023-03-29T12:16:43;12.60;1.00
13642;DHT22;6894;52.196;9.904;2023-03-29T12:19:16;12.80;1.00
13642;DHT22;6894;52.196;9.904;2023-03-29T12:21:45;12.70;1.00
13642;DHT22;6894;52.196;9.904;2023-03-29T12:24:14;12.70;1.00
13642;DHT22;6894;52.196;9.904;2023-03-29T12:26:56;12.70;1.00
13642;DHT22;6894;52.196;9.904;2023-03-29T12:29:36;12.80;1.00
13642;DHT22;6894;52.196;9.904;2023-03-29T12:32:24;12.90;1.00
13642;DHT22;6894;52.196;9.904;2023-03-29T12:35:04;12.80;1.00
13642;DHT22;6894;52.196;9.904;2023-03-29T12:37:43;12.70;1.00
13642;DHT22;6894;52.196;9.904;2023-03-29T12:40:13;12.60;1.00
13642;DHT22;6894;52.196;9.904;2023-03-29T12:42:45;12.60;58.50
13642;DHT22;6894;52.196;9.904;2023-03-29T12:45:18;12.70;1.00
13642;DHT22;6894;52.196;9.904;2023-03-29T12:47:48;12.50;1.00
13642;DHT22;6894;52.196;9.904;2023-03-29T12:50:22;12.60;27.70
13642;DHT22;6894;52.196;9.904;2023-03-29T12:52:51;12.60;1.00
13642;DHT22;6894;52.196;9.904;2023-03-29T12:55:27;12.50;99.90
13642;DHT22;6894;52.196;9.904;2023-03-29T12:58:00;12.40;1.00
13642;DHT22;6894;52.196;9.904;2023-03-29T13:00:31;12.40;99.90
13642;DHT22;6894;52.196;9.904;2023-03-29T13:03:00;12.30;1.00
13642;DHT22;6894;52.196;9.904;2023-03-29T13:05:32;12.20;1.00
13642;DHT22;6894;52.196;9.904;2023-03-29T13:08:20;12.30;1.00
13642;DHT22;6894;52.196;9.904;2023-03-29T13:10:51;12.30;99.90
13642;DHT22;6894;52.196;9.904;2023-03-29T13:13:23;12.40;99.90
13642;DHT22;6894;52.196;9.904;2023-03-29T13:15:50;12.20;99.90
13642;DHT22;6894;52.196;9.904;2023-03-29T13:18:31;12.20;1.00
13642;DHT22;6894;52.196;9.904;2023-03-29T13:21:08;12.20;99.90
13642;DHT22;6894;52.196;9.904;2023-03-29T13:23:46;12.20;1.00
13642;DHT22;6894;52.196;9.904;2023-03-29T13:26:31;12.30;1.00
13642;DHT22;6894;52.196;9.904;2023-03-29T13:29:28;12.10;99.90
13642;DHT22;6894;52.196;9.904;2023-03-29T13:32:02;12.00;1.00
13642;DHT22;6894;52.196;9.904;2023-03-29T13:34:36;12.10;1.00
13642;DHT22;6894;52.196;9.904;2023-03-29T13:37:17;12.20;1.00
13642;DHT22;6894;52.196;9.904;2023-03-29T13:39:51;12.20;1.00
13642;DHT22;6894;52.196;9.904;2023-03-29T13:42:23;12.20;99.90
13642;DHT22;6894;52.196;9.904;2023-03-29T13:44:51;12.30;1.00
13642;DHT22;6894;52.196;9.904;2023-03-29T13:47:36;12.40;1.00
13642;DHT22;6894;52.196;9.904;2023-03-29T13:50:11;12.50;1.00
13642;DHT22;6894;52.196;9.904;2023-03-29T13:52:43;12.40;99.90
13642;DHT22;6894;52.196;9.904;2023-03-29T13:55:18;12.50;1.00
13642;DHT22;6894;52.196;9.904;2023-03-29T13:57:51;12.50;1.00
13642;DHT22;6894;52.196;9.904;2023-03-29T14:00:21;12.40;99.90
13642;DHT22;6894;52.196;9.904;2023-03-29T14:02:50;12.30;99.90
13642;DHT22;6894;52.196;9.904;2023-03-29T14:05:20;12.40;99.90
13642;DHT22;6894;52.196;9.904;2023-03-29T14:07:51;12.40;1.00
13642;DHT22;6894;52.196;9.904;2023-03-29T14:10:23;12.30;99.90
13642;DHT22;6894;52.196;9.904;2023-03-29T14:12:51;12.20;1.00
13642;DHT22;6894;52.196;9.904;2023-03-29T14:15:22;12.20;1.00
13642;DHT22;6894;52.196;9.904;2023-03-29T14:17:53;12.10;99.90
13642;DHT22;6894;52.196;9.904;2023-03-29T14:20:21;12.10;1.00
13642;DHT22;6894;52.196;9.904;2023-03-29T14:22:48;12.00;1.00
13642;DHT22;6894;52.196;9.904;2023-03-29T14:25:17;12.00;1.00
13642;DHT22;6894;52.196;9.904;2023-03-29T14:27:47;12.00;1.00
13642;DHT22;6894;52.196;9.904;2023-03-29T14:30:20;11.90;67.60
13642;DHT22;6894;52.196;9.904;2023-03-29T14:32:48;11.80;1.00
13642;DHT22;6894;52.196;9.904;2023-03-29T14:35:16;11.60;1.00
13642;DHT22;6894;52.196;9.904;2023-03-29T14:37:43;11.60;99.90
13642;DHT22;6894;52.196;9.904;2023-03-29T14:40:14;11.60;99.90
13642;DHT22;6894;52.196;9.904;2023-03-29T14:42:44;11.60;99.90
13642;DHT22;6894;52.196;9.904;2023-03-29T14:45:15;11.70;1.00
13642;DHT22;6894;52.196;9.904;2023-03-29T14:47:43;11.70;1.00
13642;DHT22;6894;52.196;9.904;2023-03-29T14:50:17;11.80;1.00
13642;DHT22;6894;52.196;9.904;2023-03-29T14:52:44;11.80;1.00
13642;DHT22;6894;52.196;9.904;2023-03-29T14:55:13;11.80;1.00
13642;DHT22;6894;52.196;9.904;2023-03-29T14:57:43;11.70;1.00
13642;DHT22;6894;52.196;9.904;2023-03-29T15:00:22;11.60;1.00
13642;DHT22;6894;52.196;9.904;2023-03-29T15:02:54;11.60;1.00
13642;DHT22;6894;52.196;9.904;2023-03-29T15:05:24;11.60;1.00
13642;DHT22;6894;52.196;9.904;2023-03-29T15:07:54;11.60;1.00
13642;DHT22;6894;52.196;9.904;2023-03-29T15:10:21;11.60;1.00
13642;DHT22;6894;52.196;9.904;2023-03-29T15:12:48;11.60;1.00
13642;DHT22;6894;52.196;9.904;2023-03-29T15:15:17;11.60;1.00
13642;DHT22;6894;52.196;9.904;2023-03-29T15:17:45;11.60;1.00
13642;DHT22;6894;52.196;9.904;2023-03-29T15:20:15;11.60;1.00
13642;DHT22;6894;52.196;9.904;2023-03-29T15:22:52;11.70;1.00
13642;DHT22;6894;52.196;9.904;2023-03-29T15:25:20;11.70;1.00
13642;DHT22;6894;52.196;9.904;2023-03-29T15:27:49;11.70;1.00
13642;DHT22;6894;52.196;9.904;2023-03-29T15:30:18;11.70;99.90
13642;DHT22;6894;52.196;9.904;2023-03-29T15:32:45;11.70;1.00
13642;DHT22;6894;52.196;9.904;2023-03-29T15:35:22;11.80;1.00
13642;DHT22;6894;52.196;9.904;2023-03-29T15:37:50;11.90;1.00
13642;DHT22;6894;52.196;9.904;2023-03-29T15:40:20;12.00;99.90
13642;DHT22;6894;52.196;9.904;2023-03-29T15:42:49;12.00;99.90
13642;DHT22;6894;52.196;9.904;2023-03-29T15:45:18;12.10;99.90
13642;DHT22;6894;52.196;9.904;2023-03-29T15:47:47;12.20;99.90
13642;DHT22;6894;52.196;9.904;2023-03-29T15:50:14;12.20;1.00
13642;DHT22;6894;52.196;9.904;2023-03-29T15:52:41;12.30;1.00
13642;DHT22;6894;52.196;9.904;2023-03-29T15:55:08;12.40;99.90
13642;DHT22;6894;52.196;9.904;2023-03-29T15:57:35;12.40;99.90
13642;DHT22;6894;52.196;9.904;2023-03-29T16:00:03;12.50;99.90
13642;DHT22;6894;52.196;9.904;2023-03-29T16:02:33;12.40;96.50
13642;DHT22;6894;52.196;9.904;2023-03-29T16:05:01;12.30;1.00
13642;DHT22;6894;52.196;9.904;2023-03-29T16:07:27;12.30;99.90
13642;DHT22;6894;52.196;9.904;2023-03-29T16:09:54;12.30;99.90
13642;DHT22;6894;52.196;9.904;2023-03-29T16:12:22;12.20;99.90
13642;DHT22;6894;52.196;9.904;2023-03-29T16:14:48;12.30;99.90
13642;DHT22;6894;52.196;9.904;2023-03-29T16:17:15;12.30;99.90
13642;DHT22;6894;52.196;9.904;2023-03-29T16:19:43;12.30;99.90
13642;DHT22;6894;52.196;9.904;2023-03-29T16:22:10;12.30;99.90
13642;DHT22;6894;52.196;9.904;2023-03-29T16:24:37;12.30;10.90
13642;DHT22;6894;52.196;9.904;2023-03-29T16:27:04;12.30;1.00